Time;durP1;ratioP1;P1;durP2;ratioP2;P2;SDS_P1;SDS_P2;PMS_P1;PMS_P2;Temp;Humidity;BMP_temperature;BMP_pressure;BME280_temperature;BME280_humidity;BME280_pressure;Samples;Min_cycle;Max_cycle;Signal;HPM_P1;HPM_P2
2022/12/28 00:02:07;;;;;;;;;;;5.80;99.90;;;;;;4980041;28;19933;-73
2022/12/28 00:04:33;;;;;;;;;;;5.70;99.90;;;;;;4979744;28;19926;-73
2022/12/28 00:06:59;;;;;;;;;;;5.80;99.90;;;;;;4983098;28;19973;-71
2022/12/28 00:09:24;;;;;;;;;;;5.80;99.90;;;;;;4983184;28;20281;-71
2022/12/28 00:11:50;;;;;;;;;;;6.20;99.90;;;;;;4979234;28;19926;-71
2022/12/28 00:14:15;;;;;;;;;;;6.60;99.90;;;;;;4983275;28;19949;-71
2022/12/28 00:16:41;;;;;;;;;;;6.00;99.90;;;;;;4981213;28;20393;-71
2022/12/28 00:19:12;;;;;;;;;;;6.10;99.90;;;;;;4980385;28;19929;-72
2022/12/28 00:21:37;;;;;;;;;;;6.00;99.90;;;;;;4980043;28;19922;-72
2022/12/28 00:24:03;;;;;;;;;;;6.00;99.90;;;;;;4983454;28;19922;-71
2022/12/28 00:26:30;;;;;;;;;;;6.00;99.90;;;;;;4979886;28;19929;-72
2022/12/28 00:28:55;;;;;;;;;;;6.00;99.90;;;;;;4978007;28;19922;-72
2022/12/28 00:31:21;;;;;;;;;;;6.40;99.90;;;;;;4978718;28;19925;-72
2022/12/28 00:33:46;;;;;;;;;;;6.10;99.90;;;;;;4981495;28;20353;-72
2022/12/28 00:36:13;;;;;;;;;;;6.00;99.90;;;;;;4983044;28;19997;-72
2022/12/28 00:38:39;;;;;;;;;;;5.80;99.90;;;;;;4976714;28;19926;-72
2022/12/28 00:41:05;;;;;;;;;;;6.20;99.90;;;;;;4984116;28;19976;-72
2022/12/28 00:43:31;;;;;;;;;;;5.90;99.90;;;;;;4978228;28;20366;-72
2022/12/28 00:45:56;;;;;;;;;;;6.60;99.90;;;;;;4981116;28;20005;-72
2022/12/28 00:48:22;;;;;;;;;;;6.40;99.90;;;;;;4981453;28;19922;-72
2022/12/28 00:50:48;;;;;;;;;;;6.50;99.90;;;;;;4980874;28;19972;-71
2022/12/28 00:53:13;;;;;;;;;;;6.10;99.90;;;;;;4977431;28;19922;-73
2022/12/28 00:55:40;;;;;;;;;;;6.00;99.90;;;;;;4981177;28;19939;-73
2022/12/28 00:58:05;;;;;;;;;;;5.90;99.90;;;;;;4977822;28;19922;-73
2022/12/28 01:00:31;;;;;;;;;;;5.90;99.90;;;;;;4980736;28;19922;-73
2022/12/28 01:02:57;;;;;;;;;;;5.90;99.90;;;;;;4980533;28;20005;-73
2022/12/28 01:05:23;;;;;;;;;;;5.90;99.90;;;;;;4980984;28;19925;-73
2022/12/28 01:07:48;;;;;;;;;;;6.50;99.90;;;;;;4981855;28;20025;-73
2022/12/28 01:10:14;;;;;;;;;;;5.90;99.90;;;;;;4982960;28;19969;-73
2022/12/28 01:12:40;;;;;;;;;;;6.00;99.90;;;;;;4977363;28;19927;-73
2022/12/28 01:15:06;;;;;;;;;;;6.30;99.90;;;;;;4982769;28;19964;-73
2022/12/28 01:17:32;;;;;;;;;;;6.00;99.90;;;;;;4977119;28;19918;-73
2022/12/28 01:19:59;;;;;;;;;;;6.00;99.90;;;;;;4983575;28;20289;-73
2022/12/28 01:22:24;;;;;;;;;;;6.00;99.90;;;;;;4980641;28;19929;-70
2022/12/28 01:24:50;;;;;;;;;;;6.30;99.90;;;;;;4984563;28;19926;-72
2022/12/28 01:27:15;;;;;;;;;;;6.00;99.90;;;;;;4985021;28;19928;-72
2022/12/28 01:29:41;;;;;;;;;;;6.10;99.90;;;;;;4985068;28;19922;-72
2022/12/28 01:32:06;;;;;;;;;;;6.00;99.90;;;;;;4986931;28;19922;-72
2022/12/28 01:34:32;;;;;;;;;;;5.90;99.90;;;;;;4983758;28;20012;-72
2022/12/28 01:36:57;;;;;;;;;;;6.00;99.90;;;;;;4986401;28;20160;-72
2022/12/28 01:39:23;;;;;;;;;;;6.00;99.90;;;;;;4984630;28;19930;-72
2022/12/28 01:41:48;;;;;;;;;;;6.00;99.90;;;;;;4984976;28;19981;-72
2022/12/28 01:44:14;;;;;;;;;;;6.10;99.90;;;;;;4985703;28;19929;-73
2022/12/28 01:46:39;;;;;;;;;;;6.10;99.90;;;;;;4984640;28;20286;-72
2022/12/28 01:49:10;;;;;;;;;;;6.10;99.90;;;;;;4987130;28;19922;-72
2022/12/28 01:52:01;;;;;;;;;;;6.10;99.90;;;;;;4982503;28;19918;-73
2022/12/28 01:54:28;;;;;;;;;;;6.10;99.90;;;;;;4977696;28;19929;-73
2022/12/28 01:56:54;;;;;;;;;;;6.30;99.90;;;;;;4987075;28;19921;-72
2022/12/28 01:59:24;;;;;;;;;;;6.70;99.90;;;;;;4982548;28;19930;-72
2022/12/28 02:01:49;;;;;;;;;;;6.30;99.90;;;;;;4984087;28;19976;-73
2022/12/28 02:04:15;;;;;;;;;;;6.20;99.90;;;;;;4985065;28;19976;-73
2022/12/28 02:06:40;;;;;;;;;;;6.20;99.90;;;;;;4984345;28;19922;-72
2022/12/28 02:09:08;;;;;;;;;;;6.20;99.90;;;;;;4984352;28;19933;-72
2022/12/28 02:11:34;;;;;;;;;;;6.10;99.90;;;;;;4984680;28;19932;-73
2022/12/28 02:14:00;;;;;;;;;;;6.20;99.90;;;;;;4985172;28;20337;-73
2022/12/28 02:16:26;;;;;;;;;;;6.10;99.90;;;;;;4982108;28;19929;-73
2022/12/28 02:18:54;;;;;;;;;;;6.20;99.90;;;;;;4985806;28;19922;-73
2022/12/28 02:21:43;;;;;;;;;;;6.50;99.90;;;;;;4982936;28;19918;-73
2022/12/28 02:24:25;;;;;;;;;;;6.10;99.90;;;;;;4982952;28;20017;-73
2022/12/28 02:27:13;;;;;;;;;;;6.10;99.90;;;;;;4986709;28;20305;-73
2022/12/28 02:29:41;;;;;;;;;;;6.10;99.90;;;;;;4982285;28;20440;-73
2022/12/28 02:32:13;;;;;;;;;;;6.00;99.90;;;;;;4981410;28;20336;-72
2022/12/28 02:34:59;;;;;;;;;;;6.20;99.90;;;;;;4984470;28;19926;-73
2022/12/28 02:37:33;;;;;;;;;;;6.50;99.90;;;;;;4963364;28;20707;-73
2022/12/28 02:40:01;;;;;;;;;;;6.20;99.90;;;;;;4981678;28;20408;-74
2022/12/28 02:42:27;;;;;;;;;;;6.20;99.90;;;;;;4985920;28;20302;-73
2022/12/28 02:50:27;;;;;;;;;;;6.20;99.90;;;;;;4995512;28;19993;-73
2022/12/28 02:52:53;;;;;;;;;;;6.20;99.90;;;;;;4985827;28;19929;-74
2022/12/28 02:58:19;;;;;;;;;;;6.30;99.90;;;;;;4986478;28;19922;-74
2022/12/28 03:01:03;;;;;;;;;;;6.30;99.90;;;;;;4983366;28;20045;-73
2022/12/28 03:03:47;;;;;;;;;;;6.20;99.90;;;;;;4979302;28;19925;-73
2022/12/28 03:09:25;;;;;;;;;;;6.30;99.90;;;;;;4997414;28;19930;-73
2022/12/28 03:12:04;;;;;;;;;;;6.30;99.90;;;;;;4937381;28;19922;-73
2022/12/28 03:14:38;;;;;;;;;;;6.20;99.90;;;;;;4979653;28;20265;-73
2022/12/28 03:31:06;;;;;;;;;;;6.90;99.90;;;;;;4995101;28;19922;-73
2022/12/28 03:33:34;;;;;;;;;;;6.80;99.90;;;;;;4981411;28;19922;-73
2022/12/28 03:36:13;;;;;;;;;;;6.50;99.90;;;;;;4979692;28;19922;-73
2022/12/28 03:38:38;;;;;;;;;;;6.20;99.90;;;;;;4977719;28;19937;-73
2022/12/28 03:41:13;;;;;;;;;;;6.30;99.90;;;;;;4983337;28;19921;-73
2022/12/28 03:43:44;;;;;;;;;;;6.30;99.90;;;;;;4981430;28;20009;-73
2022/12/28 03:46:14;;;;;;;;;;;6.20;99.90;;;;;;4979223;28;19928;-73
2022/12/28 03:48:41;;;;;;;;;;;6.30;99.90;;;;;;4978184;28;19922;-73
2022/12/28 03:51:07;;;;;;;;;;;6.30;99.90;;;;;;4985290;28;19973;-72
2022/12/28 03:53:37;;;;;;;;;;;6.30;99.90;;;;;;4982232;28;19969;-73
2022/12/28 03:56:04;;;;;;;;;;;6.30;99.90;;;;;;4984226;28;20373;-73
2022/12/28 03:58:30;;;;;;;;;;;6.30;99.90;;;;;;4980775;28;19930;-73
2022/12/28 04:00:56;;;;;;;;;;;6.30;99.90;;;;;;4982848;28;20020;-73
2022/12/28 04:03:21;;;;;;;;;;;6.40;99.90;;;;;;4981709;28;20289;-73
2022/12/28 04:05:47;;;;;;;;;;;6.30;99.90;;;;;;4980518;28;20366;-72
2022/12/28 04:08:12;;;;;;;;;;;6.30;99.90;;;;;;4984288;28;19921;-73
2022/12/28 04:10:38;;;;;;;;;;;6.90;99.90;;;;;;4979872;28;19928;-72
2022/12/28 04:13:03;;;;;;;;;;;6.70;99.90;;;;;;4985289;28;19926;-73
2022/12/28 04:15:29;;;;;;;;;;;7.20;99.90;;;;;;4980991;28;20012;-73
2022/12/28 04:17:54;;;;;;;;;;;6.70;99.90;;;;;;4984124;28;19922;-73
2022/12/28 04:20:20;;;;;;;;;;;6.60;99.90;;;;;;4981241;28;19953;-72
2022/12/28 04:22:45;;;;;;;;;;;7.00;99.90;;;;;;4982541;28;20350;-73
2022/12/28 04:25:11;;;;;;;;;;;6.70;99.90;;;;;;4984077;28;19922;-73
2022/12/28 04:27:36;;;;;;;;;;;7.10;99.90;;;;;;4977350;28;19929;-73
2022/12/28 04:30:02;;;;;;;;;;;7.00;99.90;;;;;;4978555;28;19922;-73
2022/12/28 04:32:28;;;;;;;;;;;7.10;99.90;;;;;;4983070;28;20009;-73
2022/12/28 04:34:53;;;;;;;;;;;7.90;99.90;;;;;;4982727;28;20266;-71
2022/12/28 04:37:19;;;;;;;;;;;7.30;99.90;;;;;;4980195;28;20377;-71
2022/12/28 04:39:44;;;;;;;;;;;7.10;99.90;;;;;;4979821;28;20344;-70
2022/12/28 04:42:10;;;;;;;;;;;7.20;99.90;;;;;;4983740;28;19921;-72
2022/12/28 04:44:35;;;;;;;;;;;7.20;99.90;;;;;;4979659;28;19926;-71
2022/12/28 04:47:01;;;;;;;;;;;7.30;99.90;;;;;;4984165;28;19921;-71
2022/12/28 04:49:26;;;;;;;;;;;7.20;99.90;;;;;;4975673;28;20021;-71
2022/12/28 04:51:52;;;;;;;;;;;7.20;99.90;;;;;;4982943;28;20009;-71
2022/12/28 04:54:17;;;;;;;;;;;7.30;99.90;;;;;;4981279;28;20008;-71
2022/12/28 04:56:43;;;;;;;;;;;7.40;99.90;;;;;;4981479;28;19974;-71
2022/12/28 04:59:08;;;;;;;;;;;7.30;99.90;;;;;;4982108;28;19929;-71
2022/12/28 05:01:34;;;;;;;;;;;7.30;99.90;;;;;;4980330;28;19977;-71
2022/12/28 05:04:00;;;;;;;;;;;8.00;99.90;;;;;;4983726;28;19926;-71
2022/12/28 05:06:26;;;;;;;;;;;8.00;99.90;;;;;;4975939;28;19922;-72
2022/12/28 05:08:52;;;;;;;;;;;7.40;99.90;;;;;;4985540;28;19922;-72
2022/12/28 05:11:19;;;;;;;;;;;7.50;99.90;;;;;;4981406;28;20440;-72
2022/12/28 05:13:44;;;;;;;;;;;7.70;99.90;;;;;;4981073;28;20365;-72
2022/12/28 05:16:12;;;;;;;;;;;8.00;99.90;;;;;;4981413;28;19929;-71
2022/12/28 05:18:38;;;;;;;;;;;7.60;99.90;;;;;;4983069;28;19922;-71
2022/12/28 05:21:04;;;;;;;;;;;7.70;99.90;;;;;;4982571;28;20281;-71
2022/12/28 05:23:30;;;;;;;;;;;7.70;99.90;;;;;;4979791;28;19944;-71
2022/12/28 05:25:56;;;;;;;;;;;7.70;99.90;;;;;;4983616;28;20417;-71
2022/12/28 05:28:22;;;;;;;;;;;7.80;99.90;;;;;;4980631;28;19985;-71
2022/12/28 05:30:47;;;;;;;;;;;7.70;99.90;;;;;;4982540;28;20012;-71
2022/12/28 05:33:13;;;;;;;;;;;7.80;99.90;;;;;;4982641;28;20008;-71
2022/12/28 05:35:38;;;;;;;;;;;7.90;99.90;;;;;;4981474;28;19926;-71
2022/12/28 05:38:04;;;;;;;;;;;7.80;99.90;;;;;;4981510;28;20391;-71
2022/12/28 05:40:29;;;;;;;;;;;8.00;99.90;;;;;;4978454;28;19925;-72
2022/12/28 05:42:55;;;;;;;;;;;8.00;99.90;;;;;;4983165;28;19928;-72
2022/12/28 05:45:20;;;;;;;;;;;8.30;99.90;;;;;;4980635;28;20333;-71
2022/12/28 05:47:46;;;;;;;;;;;8.00;99.90;;;;;;4983226;28;20388;-71
2022/12/28 05:50:12;;;;;;;;;;;8.40;99.90;;;;;;4979883;28;20775;-72
2022/12/28 05:52:37;;;;;;;;;;;8.20;99.90;;;;;;4982272;28;19960;-71
2022/12/28 05:55:03;;;;;;;;;;;8.10;99.90;;;;;;4980322;28;19929;-72
2022/12/28 05:57:28;;;;;;;;;;;8.20;99.90;;;;;;4979296;28;19926;-72
2022/12/28 05:59:54;;;;;;;;;;;8.20;99.90;;;;;;4981740;28;20029;-72
2022/12/28 06:02:26;;;;;;;;;;;8.10;99.90;;;;;;4979956;28;19928;-71
2022/12/28 06:04:52;;;;;;;;;;;8.10;99.90;;;;;;4980497;28;19953;-71
2022/12/28 06:07:17;;;;;;;;;;;8.20;99.90;;;;;;4979476;28;20016;-71
2022/12/28 06:09:43;;;;;;;;;;;8.20;99.90;;;;;;4981481;28;20018;-72
2022/12/28 06:12:09;;;;;;;;;;;8.10;99.90;;;;;;4986361;28;19929;-72
2022/12/28 06:14:34;;;;;;;;;;;8.10;99.90;;;;;;4984790;28;19921;-71
2022/12/28 06:17:00;;;;;;;;;;;8.40;99.90;;;;;;4982892;28;20361;-72
2022/12/28 06:19:25;;;;;;;;;;;8.20;99.90;;;;;;4983326;28;19928;-73
2022/12/28 06:21:51;;;;;;;;;;;8.20;99.90;;;;;;4979115;28;19933;-73
2022/12/28 06:24:17;;;;;;;;;;;9.30;99.90;;;;;;4983762;28;19921;-71
2022/12/28 06:26:43;;;;;;;;;;;8.10;99.90;;;;;;4984147;28;19936;-72
2022/12/28 06:29:09;;;;;;;;;;;8.20;99.90;;;;;;4984496;28;20016;-72
2022/12/28 06:31:36;;;;;;;;;;;8.10;99.90;;;;;;4985146;28;19929;-71
2022/12/28 06:34:02;;;;;;;;;;;8.10;99.90;;;;;;4988947;28;19922;-72
2022/12/28 06:36:29;;;;;;;;;;;8.20;99.90;;;;;;4986121;28;20008;-72
2022/12/28 06:38:55;;;;;;;;;;;8.20;99.90;;;;;;4986319;28;19922;-72
2022/12/28 06:41:21;;;;;;;;;;;8.20;99.90;;;;;;4982265;28;19977;-72
2022/12/28 06:43:47;;;;;;;;;;;8.30;99.90;;;;;;4979758;28;19926;-72
2022/12/28 06:46:14;;;;;;;;;;;8.20;99.90;;;;;;4984468;28;19922;-72
2022/12/28 06:48:40;;;;;;;;;;;8.30;99.90;;;;;;4982114;28;20341;-72
2022/12/28 06:51:07;;;;;;;;;;;8.20;99.90;;;;;;4986177;28;19921;-72
2022/12/28 06:53:33;;;;;;;;;;;8.20;99.90;;;;;;4980358;28;19922;-72
2022/12/28 06:56:03;;;;;;;;;;;9.10;99.90;;;;;;4985576;28;19930;-72
2022/12/28 06:58:29;;;;;;;;;;;8.30;99.90;;;;;;4982852;28;20389;-72
2022/12/28 07:00:56;;;;;;;;;;;8.20;99.90;;;;;;4983971;28;20329;-72
2022/12/28 07:03:23;;;;;;;;;;;8.20;99.90;;;;;;4984106;28;20366;-72
2022/12/28 07:05:49;;;;;;;;;;;8.10;99.90;;;;;;4982687;28;19926;-72
2022/12/28 07:08:14;;;;;;;;;;;8.20;99.90;;;;;;4981179;28;19968;-72
2022/12/28 07:10:40;;;;;;;;;;;8.20;99.90;;;;;;4983158;28;19994;-72
2022/12/28 07:13:05;;;;;;;;;;;8.30;99.90;;;;;;4986093;28;19928;-72
2022/12/28 07:15:31;;;;;;;;;;;8.30;99.90;;;;;;4982681;28;19921;-72
2022/12/28 07:17:57;;;;;;;;;;;8.30;99.90;;;;;;4983182;28;19925;-72
2022/12/28 07:20:22;;;;;;;;;;;8.50;99.90;;;;;;4983777;28;20056;-72
2022/12/28 07:22:48;;;;;;;;;;;8.30;99.90;;;;;;4983040;28;19933;-72
2022/12/28 07:25:13;;;;;;;;;;;8.20;99.90;;;;;;4984975;28;19922;-72
2022/12/28 07:27:39;;;;;;;;;;;8.30;99.90;;;;;;4981605;28;20313;-72
2022/12/28 07:30:05;;;;;;;;;;;8.30;99.90;;;;;;4981640;28;20289;-72
2022/12/28 07:32:30;;;;;;;;;;;8.30;99.90;;;;;;4981563;28;20266;-72
2022/12/28 07:34:56;;;;;;;;;;;8.40;99.90;;;;;;4979096;28;19922;-72
2022/12/28 07:37:21;;;;;;;;;;;8.40;99.90;;;;;;4980027;28;19936;-72
2022/12/28 07:39:47;;;;;;;;;;;8.50;99.90;;;;;;4982638;28;19929;-72
2022/12/28 07:42:12;;;;;;;;;;;8.40;99.90;;;;;;4984000;28;19929;-72
2022/12/28 07:44:41;;;;;;;;;;;8.50;99.90;;;;;;4981352;28;20281;-72
2022/12/28 07:47:07;;;;;;;;;;;8.40;99.90;;;;;;4985209;28;19921;-71
2022/12/28 07:49:33;;;;;;;;;;;8.30;99.90;;;;;;4982209;28;19918;-71
2022/12/28 07:51:58;;;;;;;;;;;8.30;99.90;;;;;;4982079;28;20552;-72
2022/12/28 07:54:24;;;;;;;;;;;8.30;99.90;;;;;;4980912;28;20004;-73
2022/12/28 07:56:49;;;;;;;;;;;8.30;99.90;;;;;;4985471;28;19926;-71
2022/12/28 07:59:15;;;;;;;;;;;8.40;99.90;;;;;;4980699;28;19969;-71
2022/12/28 08:01:40;;;;;;;;;;;8.90;99.90;;;;;;4976708;28;19976;-71
2022/12/28 08:04:07;;;;;;;;;;;8.30;99.90;;;;;;4975353;28;20374;-71
2022/12/28 08:06:34;;;;;;;;;;;8.20;99.90;;;;;;4981026;28;20311;-71
2022/12/28 08:09:00;;;;;;;;;;;8.20;99.90;;;;;;4984216;28;19922;-72
2022/12/28 08:11:28;;;;;;;;;;;8.20;99.90;;;;;;4981130;28;19922;-72
2022/12/28 08:13:54;;;;;;;;;;;8.20;99.90;;;;;;4974902;28;19976;-72
2022/12/28 08:16:21;;;;;;;;;;;8.20;99.90;;;;;;4981280;28;19922;-72
2022/12/28 08:18:47;;;;;;;;;;;8.30;99.90;;;;;;4984033;28;19930;-71
2022/12/28 08:21:14;;;;;;;;;;;8.20;99.90;;;;;;4982763;28;19961;-72
2022/12/28 08:23:40;;;;;;;;;;;8.20;99.90;;;;;;4980678;28;19926;-73
2022/12/28 08:26:06;;;;;;;;;;;8.20;99.90;;;;;;4983092;28;19929;-73
2022/12/28 08:28:32;;;;;;;;;;;8.20;99.90;;;;;;4980808;28;19917;-73
2022/12/28 08:31:03;;;;;;;;;;;8.20;99.90;;;;;;4981953;28;19940;-73
2022/12/28 08:33:28;;;;;;;;;;;8.20;99.90;;;;;;4982689;28;20409;-73
2022/12/28 08:35:55;;;;;;;;;;;8.30;99.90;;;;;;4984471;28;19983;-73
2022/12/28 08:38:21;;;;;;;;;;;8.30;99.90;;;;;;4980615;28;19945;-73
2022/12/28 08:40:53;;;;;;;;;;;8.30;99.90;;;;;;4980451;28;20358;-73
2022/12/28 08:43:19;;;;;;;;;;;8.40;99.90;;;;;;4998641;28;19926;-73
2022/12/28 08:45:54;;;;;;;;;;;8.40;99.90;;;;;;4984105;28;20358;-73
2022/12/28 08:48:20;;;;;;;;;;;8.40;99.90;;;;;;4979648;28;19929;-73
2022/12/28 08:50:45;;;;;;;;;;;8.40;99.90;;;;;;4983629;28;19921;-73
2022/12/28 08:53:11;;;;;;;;;;;8.50;99.90;;;;;;4978798;28;19953;-74
2022/12/28 08:55:36;;;;;;;;;;;8.40;99.90;;;;;;4982570;28;20277;-70
2022/12/28 08:58:02;;;;;;;;;;;8.40;99.90;;;;;;4982299;28;20016;-72
2022/12/28 09:00:27;;;;;;;;;;;8.40;99.90;;;;;;4981041;28;20284;-72
2022/12/28 09:02:54;;;;;;;;;;;8.30;99.90;;;;;;4978929;28;19928;-72
2022/12/28 09:05:20;;;;;;;;;;;8.40;99.90;;;;;;4981423;28;19922;-72
2022/12/28 09:07:45;;;;;;;;;;;8.40;99.90;;;;;;4978979;28;20008;-72
2022/12/28 09:10:11;;;;;;;;;;;8.30;99.90;;;;;;4979226;28;19961;-72
2022/12/28 09:12:36;;;;;;;;;;;8.60;99.90;;;;;;4978778;28;20288;-72
2022/12/28 09:15:02;;;;;;;;;;;8.40;99.90;;;;;;4981997;28;19921;-72
2022/12/28 09:17:27;;;;;;;;;;;8.40;99.90;;;;;;4978220;28;19933;-75
2022/12/28 09:19:53;;;;;;;;;;;8.50;99.90;;;;;;4980856;28;19969;-74
2022/12/28 09:22:19;;;;;;;;;;;8.70;99.90;;;;;;4980428;28;19988;-72
2022/12/28 09:24:44;;;;;;;;;;;8.40;99.90;;;;;;4981200;28;20016;-74
2022/12/28 09:27:09;;;;;;;;;;;8.40;99.90;;;;;;4982905;28;19922;-73
2022/12/28 09:29:35;;;;;;;;;;;8.40;99.90;;;;;;4978971;28;19922;-73
2022/12/28 09:32:00;;;;;;;;;;;8.40;99.90;;;;;;4979014;28;20522;-71
2022/12/28 09:34:26;;;;;;;;;;;8.40;99.90;;;;;;4981440;28;20673;-72
2022/12/28 09:36:52;;;;;;;;;;;8.40;99.90;;;;;;4984427;28;19926;-72
2022/12/28 09:39:19;;;;;;;;;;;8.80;99.90;;;;;;4978690;28;19929;-72
2022/12/28 09:41:46;;;;;;;;;;;8.40;99.90;;;;;;4984275;28;19965;-71
2022/12/28 09:44:12;;;;;;;;;;;8.40;99.90;;;;;;4985978;28;19928;-76
2022/12/28 09:46:39;;;;;;;;;;;8.40;99.90;;;;;;4987842;28;19922;-70
2022/12/28 09:49:08;;;;;;;;;;;9.10;99.90;;;;;;4987695;28;19933;-71
2022/12/28 09:51:36;;;;;;;;;;;8.30;99.90;;;;;;4984525;28;19926;-73
2022/12/28 09:54:03;;;;;;;;;;;9.00;99.90;;;;;;4985547;28;20008;-85
2022/12/28 09:56:34;;;;;;;;;;;8.30;99.90;;;;;;4983032;28;19926;-81
2022/12/28 09:59:01;;;;;;;;;;;8.40;99.90;;;;;;4991683;28;20389;-73
2022/12/28 10:01:26;;;;;;;;;;;8.70;99.90;;;;;;4985202;28;19936;-76
2022/12/28 10:03:53;;;;;;;;;;;8.50;99.90;;;;;;4984848;28;19922;-74
2022/12/28 10:06:23;;;;;;;;;;;8.60;99.90;;;;;;4983548;28;19928;-76
2022/12/28 10:08:57;;;;;;;;;;;8.80;99.90;;;;;;4984783;28;19926;-77
2022/12/28 10:11:28;;;;;;;;;;;8.80;99.90;;;;;;4984593;28;19969;-84
2022/12/28 10:13:55;;;;;;;;;;;8.90;99.90;;;;;;4984362;28;20002;-73
2022/12/28 10:16:22;;;;;;;;;;;8.80;99.90;;;;;;4985941;28;19925;-75
2022/12/28 10:18:48;;;;;;;;;;;8.90;99.90;;;;;;4984868;28;19971;-72
2022/12/28 10:21:19;;;;;;;;;;;8.80;99.90;;;;;;4984516;28;19972;-72
2022/12/28 10:23:45;;;;;;;;;;;9.20;99.90;;;;;;4984753;28;20004;-74
2022/12/28 10:26:14;;;;;;;;;;;8.90;99.90;;;;;;4978958;28;20286;-73
2022/12/28 10:28:42;;;;;;;;;;;8.80;99.90;;;;;;4979400;28;19926;-72
2022/12/28 10:31:09;;;;;;;;;;;8.80;99.90;;;;;;4982477;28;19926;-71
2022/12/28 10:33:37;;;;;;;;;;;8.90;99.90;;;;;;4984803;28;19984;-70
2022/12/28 10:36:03;;;;;;;;;;;8.90;99.90;;;;;;4984212;28;19922;-73
2022/12/28 10:38:32;;;;;;;;;;;9.00;99.90;;;;;;4982710;28;19933;-70
2022/12/28 10:41:02;;;;;;;;;;;8.80;99.90;;;;;;4973909;28;20465;-70
2022/12/28 10:43:35;;;;;;;;;;;8.80;99.90;;;;;;4984950;28;19968;-71
2022/12/28 10:46:02;;;;;;;;;;;8.90;99.90;;;;;;4979477;28;19921;-69
2022/12/28 10:48:32;;;;;;;;;;;8.80;99.90;;;;;;4969857;28;19933;-72
2022/12/28 10:51:11;;;;;;;;;;;8.80;99.90;;;;;;4981843;28;20024;-79
2022/12/28 10:53:39;;;;;;;;;;;8.80;99.90;;;;;;4981535;28;19976;-74
2022/12/28 10:56:13;;;;;;;;;;;8.80;99.90;;;;;;4983808;28;19925;-74
2022/12/28 10:58:39;;;;;;;;;;;8.70;99.90;;;;;;4982359;28;19976;-73
2022/12/28 11:01:11;;;;;;;;;;;8.80;99.90;;;;;;4979074;28;19922;-72
2022/12/28 11:03:38;;;;;;;;;;;8.80;99.90;;;;;;4982974;28;20722;-75
2022/12/28 11:06:06;;;;;;;;;;;8.80;99.90;;;;;;4981946;28;19937;-71
2022/12/28 11:08:32;;;;;;;;;;;8.80;99.90;;;;;;4979965;28;20005;-80
2022/12/28 11:10:57;;;;;;;;;;;8.90;99.90;;;;;;4983137;28;20800;-77
2022/12/28 11:13:23;;;;;;;;;;;8.90;99.90;;;;;;4982329;28;20346;-75
2022/12/28 11:15:49;;;;;;;;;;;8.80;99.90;;;;;;4986627;28;20008;-75
2022/12/28 11:18:15;;;;;;;;;;;8.90;99.90;;;;;;4988958;28;19921;-72
2022/12/28 11:20:43;;;;;;;;;;;8.90;99.90;;;;;;4982790;28;19954;-73
2022/12/28 11:23:13;;;;;;;;;;;9.20;99.90;;;;;;4984860;28;19926;-72
2022/12/28 11:25:39;;;;;;;;;;;9.00;99.90;;;;;;4981479;28;19926;-74
2022/12/28 11:28:11;;;;;;;;;;;8.80;99.90;;;;;;4984094;28;19933;-71
2022/12/28 11:30:36;;;;;;;;;;;8.80;99.90;;;;;;4983478;28;19921;-69
2022/12/28 11:33:05;;;;;;;;;;;9.40;99.90;;;;;;4986686;28;19976;-75
2022/12/28 11:35:34;;;;;;;;;;;8.80;99.90;;;;;;4982067;28;20005;-72
2022/12/28 11:38:01;;;;;;;;;;;9.30;99.90;;;;;;4981784;28;19926;-76
2022/12/28 11:40:44;;;;;;;;;;;8.90;99.90;;;;;;4982476;28;20021;-76
2022/12/28 11:43:29;;;;;;;;;;;8.90;99.90;;;;;;4989484;28;20266;-71
2022/12/28 11:45:56;;;;;;;;;;;8.90;99.90;;;;;;4980802;28;19932;-73
2022/12/28 11:48:39;;;;;;;;;;;9.20;99.90;;;;;;4985055;28;19922;-72
2022/12/28 11:51:13;;;;;;;;;;;8.90;99.90;;;;;;4982989;28;19921;-72
2022/12/28 11:53:44;;;;;;;;;;;8.90;99.90;;;;;;4983038;28;19922;-71
2022/12/28 11:56:17;;;;;;;;;;;8.90;99.90;;;;;;4986083;28;19929;-70
2022/12/28 11:58:51;;;;;;;;;;;8.80;99.90;;;;;;4979571;28;20385;-72
2022/12/28 12:01:26;;;;;;;;;;;8.80;99.90;;;;;;4964640;28;19929;-71
2022/12/28 12:03:58;;;;;;;;;;;8.80;99.90;;;;;;4978525;28;19932;-70
2022/12/28 12:06:42;;;;;;;;;;;8.80;99.90;;;;;;4979145;28;20292;-71
2022/12/28 12:09:20;;;;;;;;;;;8.90;99.90;;;;;;4982704;28;19926;-70
2022/12/28 12:11:46;;;;;;;;;;;8.80;99.90;;;;;;4982906;28;19921;-69
2022/12/28 12:14:12;;;;;;;;;;;8.70;99.90;;;;;;4980197;28;19922;-69
2022/12/28 12:16:48;;;;;;;;;;;9.60;99.90;;;;;;4978457;28;19930;-70
2022/12/28 12:19:26;;;;;;;;;;;8.90;99.90;;;;;;4966428;28;19922;-70
2022/12/28 12:21:59;;;;;;;;;;;8.90;99.90;;;;;;4979963;28;20027;-69
2022/12/28 12:24:28;;;;;;;;;;;8.90;99.90;;;;;;4979695;28;19921;-70
2022/12/28 12:27:00;;;;;;;;;;;9.40;99.90;;;;;;4979024;28;19922;-71
2022/12/28 12:29:48;;;;;;;;;;;8.80;99.90;;;;;;4979401;28;20346;-69
2022/12/28 12:32:16;;;;;;;;;;;8.80;99.90;;;;;;4983031;28;19921;-69
2022/12/28 12:34:47;;;;;;;;;;;8.70;99.90;;;;;;4978158;28;20653;-68
2022/12/28 12:37:27;;;;;;;;;;;8.80;99.90;;;;;;4973696;28;20009;-68
2022/12/28 12:39:59;;;;;;;;;;;8.80;99.90;;;;;;4977143;28;20409;-69
2022/12/28 12:42:43;;;;;;;;;;;8.80;99.90;;;;;;4979528;28;20045;-69
2022/12/28 12:45:21;;;;;;;;;;;8.80;99.90;;;;;;4975770;28;19929;-70
2022/12/28 12:48:05;;;;;;;;;;;9.40;99.90;;;;;;4978067;28;20385;-70
2022/12/28 12:50:47;;;;;;;;;;;8.80;99.90;;;;;;4974258;28;19984;-71
2022/12/28 12:53:32;;;;;;;;;;;8.80;99.90;;;;;;4979568;28;20396;-70
2022/12/28 12:56:09;;;;;;;;;;;8.70;99.90;;;;;;4971908;28;19952;-71
2022/12/28 12:58:47;;;;;;;;;;;8.70;99.90;;;;;;4976054;28;19956;-72
2022/12/28 13:01:28;;;;;;;;;;;8.70;99.90;;;;;;4973993;28;19949;-71
2022/12/28 13:03:58;;;;;;;;;;;8.70;99.90;;;;;;4975902;28;19972;-71
2022/12/28 13:06:25;;;;;;;;;;;8.60;99.90;;;;;;4973967;28;19922;-70
2022/12/28 13:08:55;;;;;;;;;;;8.70;99.90;;;;;;4975970;28;19928;-71
2022/12/28 13:11:21;;;;;;;;;;;8.40;99.90;;;;;;4979882;28;19922;-71
2022/12/28 13:13:49;;;;;;;;;;;9.10;99.90;;;;;;4979741;28;20386;-72
2022/12/28 13:16:19;;;;;;;;;;;8.40;99.90;;;;;;4980538;28;20289;-72
2022/12/28 13:18:51;;;;;;;;;;;8.80;99.90;;;;;;4971536;28;20490;-74
2022/12/28 13:21:19;;;;;;;;;;;8.40;99.90;;;;;;4978558;28;20278;-71
2022/12/28 13:23:44;;;;;;;;;;;8.40;99.90;;;;;;4980519;28;19926;-71
2022/12/28 13:26:11;;;;;;;;;;;8.30;99.90;;;;;;4980327;28;19967;-72
2022/12/28 13:28:42;;;;;;;;;;;8.40;99.90;;;;;;4977634;28;19996;-71
2022/12/28 13:31:12;;;;;;;;;;;8.40;99.90;;;;;;4989022;28;20372;-74
2022/12/28 13:33:38;;;;;;;;;;;8.20;99.90;;;;;;4979708;28;19975;-69
2022/12/28 13:36:04;;;;;;;;;;;8.40;99.90;;;;;;4979173;28;19926;-71
2022/12/28 13:38:30;;;;;;;;;;;8.40;99.90;;;;;;4979023;28;20031;-72
2022/12/28 13:41:02;;;;;;;;;;;8.40;99.90;;;;;;4982990;28;19993;-72
2022/12/28 13:43:44;;;;;;;;;;;8.30;99.90;;;;;;4972657;28;19930;-71
2022/12/28 13:46:11;;;;;;;;;;;8.40;99.90;;;;;;4972019;28;19977;-71
2022/12/28 13:48:40;;;;;;;;;;;8.60;99.90;;;;;;4976040;28;19929;-71
2022/12/28 13:51:10;;;;;;;;;;;8.30;99.90;;;;;;4974055;28;20337;-71
2022/12/28 13:53:36;;;;;;;;;;;8.30;99.90;;;;;;4972006;28;19922;-72
2022/12/28 13:56:04;;;;;;;;;;;8.30;99.90;;;;;;4971900;28;21500;-71
2022/12/28 13:58:34;;;;;;;;;;;8.40;99.90;;;;;;4970598;28;19929;-70
2022/12/28 14:01:02;;;;;;;;;;;8.50;99.90;;;;;;4971424;28;20460;-73
2022/12/28 14:03:28;;;;;;;;;;;8.40;99.90;;;;;;4973632;28;19932;-74
2022/12/28 14:05:58;;;;;;;;;;;8.50;99.90;;;;;;4982182;28;19933;-74
2022/12/28 14:08:24;;;;;;;;;;;9.30;99.90;;;;;;4978238;28;19922;-71
2022/12/28 14:10:50;;;;;;;;;;;8.70;99.90;;;;;;4973072;28;20015;-70
2022/12/28 14:13:17;;;;;;;;;;;8.50;99.90;;;;;;4974496;28;19957;-71
2022/12/28 14:15:43;;;;;;;;;;;8.40;99.90;;;;;;4971623;28;19922;-72
2022/12/28 14:18:12;;;;;;;;;;;8.40;99.90;;;;;;4974038;28;19936;-72
2022/12/28 14:20:48;;;;;;;;;;;8.60;99.90;;;;;;4971249;28;19925;-71
2022/12/28 14:23:26;;;;;;;;;;;8.30;99.90;;;;;;4975313;28;19972;-72
2022/12/28 14:25:53;;;;;;;;;;;8.30;99.90;;;;;;4970652;28;19944;-70
2022/12/28 14:28:26;;;;;;;;;;;8.40;99.90;;;;;;4975647;28;20432;-71
2022/12/28 14:30:53;;;;;;;;;;;8.40;99.90;;;;;;4969921;28;19980;-69
2022/12/28 14:33:19;;;;;;;;;;;8.20;99.90;;;;;;4971176;28;19934;-71
2022/12/28 14:35:50;;;;;;;;;;;8.30;99.90;;;;;;4976269;28;20399;-71
2022/12/28 14:38:17;;;;;;;;;;;8.30;99.90;;;;;;4979519;28;19992;-71
2022/12/28 14:40:42;;;;;;;;;;;8.20;99.90;;;;;;4970868;28;20009;-75
2022/12/28 14:43:20;;;;;;;;;;;8.20;99.90;;;;;;4977080;28;19976;-70
2022/12/28 14:45:46;;;;;;;;;;;8.20;99.90;;;;;;4984568;28;20008;-71
2022/12/28 14:48:23;;;;;;;;;;;8.20;99.90;;;;;;4978086;28;20008;-70
2022/12/28 14:51:03;;;;;;;;;;;8.20;99.90;;;;;;4982978;28;20167;-70
2022/12/28 14:53:31;;;;;;;;;;;8.20;99.90;;;;;;4979106;28;19922;-70
2022/12/28 14:56:11;;;;;;;;;;;8.50;99.90;;;;;;4975974;28;19976;-70
2022/12/28 14:58:42;;;;;;;;;;;8.20;99.90;;;;;;4985741;28;19921;-70
2022/12/28 15:01:08;;;;;;;;;;;8.20;99.90;;;;;;4982343;28;19922;-70
2022/12/28 15:04:06;;;;;;;;;;;8.20;99.90;;;;;;4984506;28;19996;-71